createdAt,value
2018-02-02T00:01:36.714Z,100051.45
2018-02-02T00:04:05.034Z,100048.57
2018-02-02T00:06:33.432Z,100056.27
2018-02-02T00:09:02.510Z,100066.52
2018-02-02T00:11:30.798Z,100056.31
2018-02-02T00:13:59.113Z,100056.80
2018-02-02T00:16:27.416Z,100050.11
2018-02-02T00:18:55.738Z,100045.48
2018-02-02T00:21:24.052Z,100043.50
2018-02-02T00:23:52.348Z,100052.84
2018-02-02T00:26:20.648Z,100056.50
2018-02-02T00:28:48.963Z,100060.25
2018-02-02T00:31:17.293Z,100060.86
2018-02-02T00:33:45.920Z,100051.58
2018-02-02T00:36:14.238Z,100046.63
2018-02-02T00:38:42.553Z,100041.39
2018-02-02T00:41:10.860Z,100046.78
2018-02-02T00:43:39.174Z,100040.16
2018-02-02T00:46:08.286Z,100048.42
2018-02-02T00:48:37.382Z,100040.91
2018-02-02T00:54:06.463Z,100036.09
2018-02-02T00:56:34.762Z,100031.89
2018-02-02T00:59:03.868Z,100026.94
2018-02-02T01:01:33.021Z,100030.34
2018-02-02T01:04:01.344Z,100031.79
2018-02-02T01:06:29.769Z,100025.62
2018-02-02T01:08:58.917Z,100028.59
2018-02-02T01:11:27.202Z,100028.02
2018-02-02T01:13:55.506Z,100015.50
2018-02-02T01:16:23.856Z,100021.52
2018-02-02T01:18:52.192Z,100018.39
2018-02-02T01:21:20.577Z,100021.69
2018-02-02T01:23:48.886Z,100019.03
2018-02-02T01:26:17.209Z,100015.08
2018-02-02T01:28:46.287Z,100026.33
2018-02-02T01:31:14.571Z,100022.78
2018-02-02T01:33:43.664Z,100021.05
2018-02-02T01:36:11.962Z,100024.91
2018-02-02T01:38:41.033Z,100016.25
2018-02-02T01:41:09.329Z,100023.98
2018-02-02T01:43:37.648Z,100023.48
2018-02-02T01:46:05.956Z,100029.20
2018-02-02T01:48:34.255Z,100015.02
2018-02-02T01:51:02.562Z,100023.98
2018-02-02T01:53:30.855Z,100027.78
2018-02-02T01:55:59.996Z,100026.86
2018-02-02T01:58:28.306Z,100017.17
2018-02-02T02:00:56.636Z,100025.12
2018-02-02T02:03:24.925Z,100023.58
2018-02-02T02:05:53.242Z,100008.58
2018-02-02T02:08:21.550Z,100016.34
2018-02-02T02:10:49.862Z,100017.36
2018-02-02T02:13:18.182Z,100011.74
2018-02-02T02:15:46.504Z,100019.30
2018-02-02T02:18:15.582Z,100012.37
2018-02-02T02:20:43.898Z,100013.07
2018-02-02T02:23:13.022Z,100004.08
2018-02-02T02:25:41.694Z,99997.64
2018-02-02T02:28:10.365Z,99992.84
2018-02-02T02:30:39.455Z,99993.97
2018-02-02T02:33:08.558Z,99988.16
2018-02-02T02:35:37.631Z,99991.41
2018-02-02T02:38:05.972Z,99988.77
2018-02-02T02:40:34.258Z,99991.00
2018-02-02T02:43:02.809Z,99990.09
2018-02-02T02:45:31.130Z,99997.53
2018-02-02T02:48:00.352Z,99987.17
2018-02-02T02:50:28.652Z,99977.84
2018-02-02T02:52:56.961Z,99975.08
2018-02-02T02:55:26.046Z,99988.52
2018-02-02T02:57:54.359Z,99984.14
2018-02-02T03:00:22.689Z,99968.93
2018-02-02T03:02:51.024Z,99975.05
2018-02-02T03:05:19.326Z,99968.52
2018-02-02T03:07:47.630Z,99965.16
2018-02-02T03:10:15.950Z,99959.03
2018-02-02T03:12:45.108Z,99958.72
2018-02-02T03:15:14.175Z,99976.45
2018-02-02T03:17:42.468Z,99961.95
2018-02-02T03:20:10.761Z,99957.75
2018-02-02T03:22:39.068Z,99959.80
2018-02-02T03:25:07.388Z,99954.70
2018-02-02T03:27:35.722Z,99954.60
2018-02-02T03:30:04.062Z,99959.71
2018-02-02T03:32:32.376Z,99961.63
2018-02-02T03:35:00.724Z,99971.22
2018-02-02T03:37:29.016Z,99970.59
2018-02-02T03:39:57.323Z,99962.14
2018-02-02T03:42:25.632Z,99959.58
2018-02-02T03:44:53.967Z,99962.87
2018-02-02T03:47:22.259Z,99960.09
2018-02-02T03:49:50.549Z,99954.29
2018-02-02T03:52:18.860Z,99953.34
2018-02-02T03:54:47.959Z,99951.80
2018-02-02T03:57:16.275Z,99953.95
2018-02-02T03:59:45.376Z,99948.96
2018-02-02T04:02:13.688Z,99951.13
2018-02-02T04:04:42.010Z,99950.02
2018-02-02T04:07:11.088Z,99947.29
2018-02-02T04:09:39.435Z,99960.26
2018-02-02T04:12:07.735Z,99965.78
2018-02-02T04:14:36.034Z,99956.19
2018-02-02T04:17:04.328Z,99961.30
2018-02-02T04:19:33.284Z,99961.90
2018-02-02T04:22:01.594Z,99968.09
2018-02-02T04:24:29.899Z,99960.11
2018-02-02T04:26:59.013Z,99967.97
2018-02-02T04:29:28.086Z,99971.73
2018-02-02T04:31:56.375Z,99984.89
2018-02-02T04:34:25.444Z,99987.54
2018-02-02T04:36:53.758Z,99984.58
2018-02-02T04:39:22.082Z,99986.80
2018-02-02T04:41:50.391Z,99986.07
2018-02-02T04:44:18.681Z,99989.95
2018-02-02T04:46:47.006Z,99991.27
2018-02-02T04:49:16.129Z,99999.42
2018-02-02T04:51:44.444Z,100003.80
2018-02-02T04:54:12.773Z,100007.40
2018-02-02T04:56:41.356Z,100007.40
2018-02-02T04:59:09.653Z,100012.29
2018-02-02T05:01:37.967Z,100013.52
2018-02-02T05:04:06.397Z,100021.28
2018-02-02T05:06:34.852Z,100020.88
2018-02-02T05:09:03.180Z,100018.31
2018-02-02T05:11:31.489Z,100024.94
2018-02-02T05:13:59.811Z,100019.36
2018-02-02T05:16:28.891Z,100024.75
2018-02-02T05:18:57.189Z,100030.97
2018-02-02T05:21:25.501Z,100033.50
2018-02-02T05:23:53.808Z,100039.08
2018-02-02T05:26:22.123Z,100040.91
2018-02-02T05:28:51.245Z,100038.39
2018-02-02T05:31:20.315Z,100037.59
2018-02-02T05:33:48.643Z,100044.31
2018-02-02T05:36:16.945Z,100044.22
2018-02-02T05:38:45.259Z,100044.82
2018-02-02T05:41:13.596Z,100062.59
2018-02-02T05:43:41.910Z,100063.31
2018-02-02T05:46:10.237Z,100073.38
2018-02-02T05:48:40.061Z,100067.27
2018-02-02T05:51:09.175Z,100067.36
2018-02-02T05:53:37.481Z,100070.92
2018-02-02T05:56:05.786Z,100067.48
2018-02-02T05:58:34.095Z,100077.86
2018-02-02T06:01:03.161Z,100077.55
2018-02-02T06:03:32.271Z,100080.61
2018-02-02T06:06:00.628Z,100079.41
2018-02-02T06:08:28.947Z,100096.02
2018-02-02T06:10:57.277Z,100086.83
2018-02-02T06:13:25.589Z,100092.22
2018-02-02T06:15:53.923Z,100095.79
2018-02-02T06:18:22.383Z,100096.42
2018-02-02T06:20:51.459Z,100099.67
2018-02-02T06:23:19.761Z,100100.08
2018-02-02T06:25:48.071Z,100102.64
2018-02-02T06:28:16.383Z,100100.17
2018-02-02T06:30:44.781Z,100107.05
2018-02-02T06:33:13.091Z,100105.50
2018-02-02T06:35:42.180Z,100113.51
2018-02-02T06:38:10.491Z,100117.13
2018-02-02T06:40:38.795Z,100117.41
2018-02-02T06:43:07.079Z,100124.85
2018-02-02T06:45:36.578Z,100125.36
2018-02-02T06:48:04.919Z,100130.38
2018-02-02T06:50:34.033Z,100132.53
2018-02-02T06:53:03.109Z,100127.36
2018-02-02T06:55:31.435Z,100142.25
2018-02-02T06:58:00.772Z,100131.42
2018-02-02T07:00:29.115Z,100147.73
2018-02-02T07:02:57.445Z,100152.22
2018-02-02T07:05:25.761Z,100152.77
2018-02-02T07:07:54.879Z,100157.66
2018-02-02T07:10:23.194Z,100165.80
2018-02-02T07:12:51.519Z,100166.30
2018-02-02T07:15:19.841Z,100173.64
2018-02-02T07:17:48.139Z,100174.66
2018-02-02T07:20:16.509Z,100175.98
2018-02-02T07:22:44.816Z,100188.45
2018-02-02T07:25:13.129Z,100181.64
2018-02-02T07:27:42.301Z,100193.11
2018-02-02T07:30:11.363Z,100192.47
2018-02-02T07:32:39.685Z,100198.73
2018-02-02T07:35:07.991Z,100198.41
2018-02-02T07:37:36.306Z,100201.75
2018-02-02T07:40:04.657Z,100204.72
2018-02-02T07:42:33.872Z,100203.71
2018-02-02T07:45:02.943Z,100207.31
2018-02-02T07:47:31.257Z,100215.28
2018-02-02T07:50:00.348Z,100219.20
2018-02-02T07:52:28.676Z,100222.90
2018-02-02T07:54:56.996Z,100227.73
2018-02-02T07:57:26.110Z,100235.38
2018-02-02T07:59:55.178Z,100242.33
2018-02-02T08:02:23.489Z,100249.12
2018-02-02T08:04:52.567Z,100252.33
2018-02-02T08:07:20.902Z,100256.30
2018-02-02T08:09:49.324Z,100250.34
2018-02-02T08:12:17.640Z,100259.16
2018-02-02T08:14:46.710Z,100265.52
2018-02-02T08:17:15.037Z,100258.20
2018-02-02T08:19:43.513Z,100258.07
2018-02-02T08:22:12.603Z,100262.78
2018-02-02T08:24:41.700Z,100266.57
2018-02-02T08:27:09.998Z,100277.59
2018-02-02T08:29:38.298Z,100270.13
2018-02-02T08:32:06.632Z,100274.94
2018-02-02T08:34:34.963Z,100273.52
2018-02-02T08:37:03.281Z,100282.52
2018-02-02T08:39:31.605Z,100289.33
2018-02-02T08:41:59.903Z,100292.83
2018-02-02T08:44:28.204Z,100293.00
2018-02-02T08:46:56.514Z,100296.59
2018-02-02T08:49:24.838Z,100300.10
2018-02-02T08:51:53.142Z,100291.87
2018-02-02T08:54:21.505Z,100295.91
2018-02-02T08:56:49.839Z,100302.50
2018-02-02T08:59:18.160Z,100296.48
2018-02-02T09:01:52.040Z,100309.28
2018-02-02T09:04:20.358Z,100309.17
2018-02-02T09:06:48.734Z,100320.19
2018-02-02T09:09:17.039Z,100323.72
2018-02-02T09:11:45.387Z,100335.16
2018-02-02T09:14:14.842Z,100335.78
2018-02-02T09:16:43.188Z,100341.01
2018-02-02T09:19:11.573Z,100344.20
2018-02-02T09:21:40.244Z,100348.30
2018-02-02T09:24:09.341Z,100349.33
2018-02-02T09:26:38.542Z,100356.53
2018-02-02T09:29:07.639Z,100358.67
2018-02-02T09:31:36.741Z,100362.17
2018-02-02T09:34:05.308Z,100365.05
2018-02-02T09:36:33.604Z,100373.97
2018-02-02T09:39:01.919Z,100380.09
2018-02-02T09:41:30.226Z,100375.04
2018-02-02T09:43:58.522Z,100376.47
2018-02-02T09:46:26.840Z,100398.43
2018-02-02T09:48:56.006Z,100391.85
2018-02-02T09:51:24.306Z,100394.47
2018-02-02T09:53:53.392Z,100394.39
2018-02-02T09:56:21.709Z,100405.80
2018-02-02T09:58:50.815Z,100404.62
2018-02-02T10:01:19.132Z,100416.08
2018-02-02T10:03:47.456Z,100415.23
2018-02-02T10:06:15.757Z,100413.08
2018-02-02T10:08:44.818Z,100412.77
2018-02-02T10:11:13.134Z,100420.13
2018-02-02T10:13:42.215Z,100416.43
2018-02-02T10:16:10.527Z,100410.52
2018-02-02T10:18:38.812Z,100415.95
2018-02-02T10:21:07.102Z,100415.77
2018-02-02T10:23:35.400Z,100414.81
2018-02-02T10:26:03.684Z,100410.78
2018-02-02T10:28:32.015Z,100418.19
2018-02-02T10:31:01.105Z,100417.09
2018-02-02T10:33:29.406Z,100425.84
2018-02-02T10:35:57.751Z,100432.58
2018-02-02T10:38:26.082Z,100431.09
2018-02-02T10:40:54.398Z,100429.48
2018-02-02T10:43:22.736Z,100438.62
2018-02-02T10:45:51.812Z,100440.60
2018-02-02T10:48:20.164Z,100441.84
2018-02-02T10:50:48.558Z,100446.08
2018-02-02T10:53:16.904Z,100445.97
2018-02-02T10:55:45.220Z,100451.82
2018-02-02T10:58:13.533Z,100452.66
2018-02-02T11:00:49.008Z,100451.54
2018-02-02T11:03:17.923Z,100444.69
2018-02-02T11:05:46.276Z,100448.98
2018-02-02T11:08:14.620Z,100449.09
2018-02-02T11:10:42.931Z,100450.83
2018-02-02T11:13:11.241Z,100446.44
2018-02-02T11:15:39.561Z,100450.35
2018-02-02T11:18:07.896Z,100451.66
2018-02-02T11:20:36.212Z,100449.11
2018-02-02T11:23:04.712Z,100451.17
2018-02-02T11:25:33.060Z,100456.28
2018-02-02T11:28:01.378Z,100458.14
2018-02-02T11:30:29.683Z,100462.66
2018-02-02T11:32:58.738Z,100460.62
2018-02-02T11:35:27.050Z,100454.30
2018-02-02T11:37:55.351Z,100458.41
2018-02-02T11:40:24.408Z,100454.91
2018-02-02T11:42:52.748Z,100460.44
2018-02-02T11:45:21.182Z,100453.36
2018-02-02T11:47:49.516Z,100461.34
2018-02-02T11:50:17.820Z,100458.03
2018-02-02T11:52:46.108Z,100474.23
2018-02-02T11:55:14.412Z,100478.78
2018-02-02T11:57:42.708Z,100481.75
2018-02-02T12:00:12.164Z,100488.02
2018-02-02T12:02:40.587Z,100495.83
2018-02-02T12:05:08.904Z,100498.59
2018-02-02T12:07:37.372Z,100507.20
2018-02-02T12:10:06.460Z,100505.55
2018-02-02T12:12:34.784Z,100509.45
2018-02-02T12:15:03.111Z,100503.09
2018-02-02T12:17:31.422Z,100513.36
2018-02-02T12:20:01.838Z,100507.79
2018-02-02T12:25:40.186Z,100524.33
2018-02-02T12:28:13.918Z,100516.52
2018-02-02T12:30:47.794Z,100512.74
2018-02-02T12:33:21.659Z,100521.45
2018-02-02T12:35:49.956Z,100523.91
2018-02-02T12:38:19.054Z,100520.02
2018-02-02T12:40:47.397Z,100524.72
2018-02-02T12:43:15.789Z,100524.25
2018-02-02T12:45:44.155Z,100524.14
2018-02-02T12:51:03.848Z,100534.22
2018-02-02T12:53:32.158Z,100529.86
2018-02-02T12:56:00.530Z,100527.50
2018-02-02T12:58:28.824Z,100531.59
2018-02-02T13:00:57.145Z,100520.80
2018-02-02T13:03:25.473Z,100516.06
2018-02-02T13:05:53.883Z,100528.06
2018-02-02T13:08:22.172Z,100524.70
2018-02-02T13:10:51.250Z,100533.02
2018-02-02T13:13:19.552Z,100534.16
2018-02-02T13:15:48.613Z,100546.77
2018-02-02T13:18:16.921Z,100546.46
2018-02-02T13:20:45.246Z,100544.73
2018-02-02T13:23:13.557Z,100556.93
2018-02-02T13:25:41.863Z,100567.09
2018-02-02T13:28:10.199Z,100564.52
2018-02-02T13:30:38.523Z,100583.88
2018-02-02T13:33:06.827Z,100578.50
2018-02-02T13:35:35.906Z,100577.72
2018-02-02T13:38:04.236Z,100579.31
2018-02-02T13:40:32.554Z,100571.17
2018-02-02T13:43:00.859Z,100583.74
2018-02-02T13:45:29.933Z,100577.67
2018-02-02T13:47:58.235Z,100585.24
2018-02-02T13:50:27.335Z,100579.63
2018-02-02T13:52:55.657Z,100583.53
2018-02-02T13:55:23.941Z,100584.58
2018-02-02T13:57:52.250Z,100583.09
2018-02-02T14:00:20.804Z,100577.23
2018-02-02T14:02:49.121Z,100576.36
2018-02-02T14:05:17.428Z,100576.96
2018-02-02T14:07:45.732Z,100578.53
2018-02-02T14:10:14.038Z,100588.48
2018-02-02T14:12:42.340Z,100580.50
2018-02-02T14:15:10.653Z,100592.05
2018-02-02T14:17:38.983Z,100589.93
2018-02-02T14:20:07.265Z,100592.81
2018-02-02T14:22:35.612Z,100599.58
2018-02-02T14:25:04.724Z,100595.64
2018-02-02T14:27:33.020Z,100608.30
2018-02-02T14:30:01.365Z,100606.95
2018-02-02T14:32:29.673Z,100618.30
2018-02-02T14:34:57.993Z,100628.69
2018-02-02T14:37:26.282Z,100624.89
2018-02-02T14:39:54.615Z,100631.31
2018-02-02T14:42:23.048Z,100636.31
2018-02-02T14:44:52.257Z,100637.37
2018-02-02T14:47:20.561Z,100646.91
2018-02-02T14:49:48.856Z,100643.55
2018-02-02T14:52:17.911Z,100653.77
2018-02-02T14:54:46.221Z,100656.12
2018-02-02T14:57:14.536Z,100665.80
2018-02-02T14:59:42.825Z,100670.67
2018-02-02T15:02:11.136Z,100685.13
2018-02-02T15:04:39.447Z,100684.11
2018-02-02T15:07:07.762Z,100692.41
2018-02-02T15:09:36.057Z,100694.84
2018-02-02T15:12:04.344Z,100697.60
2018-02-02T15:14:32.641Z,100700.58
2018-02-02T15:17:00.934Z,100708.50
2018-02-02T15:19:29.253Z,100713.61
2018-02-02T15:21:57.558Z,100706.75
2018-02-02T15:24:25.861Z,100714.02
2018-02-02T15:26:54.169Z,100710.36
2018-02-02T15:29:22.486Z,100718.56
2018-02-02T15:31:50.794Z,100714.34
2018-02-02T15:34:19.124Z,100719.02
2018-02-02T15:36:47.444Z,100723.00
2018-02-02T15:39:15.737Z,100722.36
2018-02-02T15:41:44.086Z,100726.80
2018-02-02T15:44:12.397Z,100732.11
2018-02-02T15:46:40.709Z,100739.25
2018-02-02T15:49:09.017Z,100744.52
2018-02-02T15:51:38.079Z,100749.30
2018-02-02T15:54:06.393Z,100742.61
2018-02-02T15:56:34.691Z,100748.55
2018-02-02T15:59:03.783Z,100753.97
2018-02-02T16:01:32.832Z,100744.36
2018-02-02T16:04:01.152Z,100751.95
2018-02-02T16:06:29.459Z,100761.51
2018-02-02T16:08:57.773Z,100763.70
2018-02-02T16:11:26.139Z,100769.74
2018-02-02T16:13:54.457Z,100776.70
2018-02-02T16:16:23.632Z,100774.31
2018-02-02T16:18:51.931Z,100779.51
2018-02-02T16:21:20.229Z,100775.38
2018-02-02T16:23:48.521Z,100772.08
2018-02-02T16:26:16.825Z,100767.39
2018-02-02T16:28:45.901Z,100793.98
2018-02-02T16:31:14.213Z,100794.28
2018-02-02T16:33:42.535Z,100804.47
2018-02-02T16:36:10.867Z,100803.37
2018-02-02T16:38:39.925Z,100811.81
2018-02-02T16:41:08.243Z,100816.64
2018-02-02T16:43:37.334Z,100815.48
2018-02-02T16:46:05.636Z,100816.36
2018-02-02T16:48:34.689Z,100813.48
2018-02-02T16:51:03.860Z,100831.57
2018-02-02T16:53:32.164Z,100828.97
2018-02-02T16:56:00.476Z,100837.94
2018-02-02T16:58:28.801Z,100839.73
2018-02-02T17:00:57.108Z,100841.41
2018-02-02T17:03:25.413Z,100845.19
2018-02-02T17:05:53.723Z,100844.70
2018-02-02T17:08:22.841Z,100850.67
2018-02-02T17:10:51.159Z,100857.41
2018-02-02T17:13:19.475Z,100857.22
2018-02-02T17:15:48.581Z,100871.54
2018-02-02T17:18:17.639Z,100875.92
2018-02-02T17:20:45.931Z,100876.54
2018-02-02T17:23:14.997Z,100871.64
2018-02-02T17:25:43.311Z,100879.91
2018-02-02T17:28:12.289Z,100878.96
2018-02-02T17:30:40.587Z,100877.45
2018-02-02T17:33:08.933Z,100888.39
2018-02-02T17:35:37.260Z,100883.07
2018-02-02T17:38:05.641Z,100889.66
2018-02-02T17:40:34.761Z,100890.31
2018-02-02T17:43:03.835Z,100899.77
2018-02-02T17:45:32.170Z,100899.28
2018-02-02T17:48:00.469Z,100907.78
2018-02-02T17:50:28.802Z,100904.80
2018-02-02T17:52:57.889Z,100915.15
2018-02-02T17:55:27.022Z,100911.75
2018-02-02T17:57:55.298Z,100923.44
2018-02-02T18:00:24.427Z,100922.20
2018-02-02T18:02:58.293Z,100924.45
2018-02-02T18:05:27.376Z,100938.08
2018-02-02T18:07:55.677Z,100950.09
2018-02-02T18:10:24.742Z,100954.32
2018-02-02T18:12:53.072Z,100946.86
2018-02-02T18:15:21.415Z,100960.86
2018-02-02T18:17:49.738Z,100963.34
2018-02-02T18:20:18.114Z,100968.48
2018-02-02T18:22:46.460Z,100978.56
2018-02-02T18:25:14.767Z,100967.88
2018-02-02T18:27:43.867Z,100984.39
2018-02-02T18:30:12.961Z,100984.81
2018-02-02T18:32:42.090Z,100994.71
2018-02-02T18:35:10.447Z,100991.23
2018-02-02T18:37:39.514Z,100993.30
2018-02-02T18:40:07.829Z,100998.94
2018-02-02T18:42:36.924Z,100990.31
2018-02-02T18:45:06.056Z,100987.75
2018-02-02T18:47:35.180Z,100992.56
2018-02-02T18:50:03.482Z,101000.94
2018-02-02T18:52:31.811Z,101005.02
2018-02-02T18:55:00.211Z,101010.00
2018-02-02T18:57:28.900Z,101009.50
2018-02-02T18:59:57.239Z,101009.13
2018-02-02T19:02:26.375Z,101008.59
2018-02-02T19:04:54.694Z,101006.19
2018-02-02T19:07:23.592Z,101006.52
2018-02-02T19:09:51.897Z,101010.08
2018-02-02T19:12:20.201Z,101017.78
2018-02-02T19:14:48.519Z,101018.75
2018-02-02T19:17:16.809Z,101022.14
2018-02-02T19:19:45.132Z,101027.31
2018-02-02T19:22:14.190Z,101031.21
2018-02-02T19:24:42.485Z,101043.72
2018-02-02T19:27:11.566Z,101046.87
2018-02-02T19:29:39.919Z,101049.66
2018-02-02T19:32:08.351Z,101050.73
2018-02-02T19:34:36.656Z,101046.92
2018-02-02T19:37:05.713Z,101048.99
2018-02-02T19:39:34.006Z,101045.34
2018-02-02T19:42:02.348Z,101045.09
2018-02-02T19:44:30.656Z,101045.09
2018-02-02T19:46:58.987Z,101047.17
2018-02-02T19:49:28.127Z,101046.01
2018-02-02T19:51:56.450Z,101046.84
2018-02-02T19:54:24.790Z,101054.63
2018-02-02T19:56:53.108Z,101050.40
2018-02-02T19:59:21.470Z,101052.64
2018-02-02T20:01:49.821Z,101047.91
2018-02-02T20:04:18.109Z,101048.62
2018-02-02T20:06:46.450Z,101050.81
2018-02-02T20:09:14.767Z,101048.00
2018-02-02T20:11:43.067Z,101042.95
2018-02-02T20:14:11.388Z,101050.44
2018-02-02T20:16:39.748Z,101051.27
2018-02-02T20:19:08.070Z,101059.96
2018-02-02T20:21:37.176Z,101058.97
2018-02-02T20:24:05.496Z,101061.28
2018-02-02T20:26:33.814Z,101067.09
2018-02-02T20:29:02.250Z,101070.87
2018-02-02T20:31:30.613Z,101067.09
2018-02-02T20:33:58.906Z,101068.98
2018-02-02T20:36:27.196Z,101074.21
2018-02-02T20:38:55.568Z,101065.92
2018-02-02T20:41:23.874Z,101074.13
2018-02-02T20:43:52.205Z,101070.73
2018-02-02T20:46:21.282Z,101066.42
2018-02-02T20:48:50.448Z,101073.21
2018-02-02T20:51:18.784Z,101069.76
2018-02-02T20:53:48.806Z,101077.04
2018-02-02T20:56:17.866Z,101072.09
2018-02-02T20:58:46.202Z,101065.03
2018-02-02T21:01:14.576Z,101064.63
2018-02-02T21:03:43.711Z,101067.55
2018-02-02T21:06:12.108Z,101071.75
2018-02-02T21:08:40.438Z,101067.63
2018-02-02T21:11:09.539Z,101061.16
2018-02-02T21:16:13.106Z,101061.55
2018-02-02T21:18:41.935Z,101062.45
2018-02-02T21:21:10.236Z,101061.71
2018-02-02T21:23:39.294Z,101056.24
2018-02-02T21:26:07.592Z,101052.51
2018-02-02T21:28:35.884Z,101058.89
2018-02-02T21:31:04.186Z,101057.20
2018-02-02T21:33:33.280Z,101055.78
2018-02-02T21:36:02.334Z,101055.50
2018-02-02T21:38:30.646Z,101048.89
2018-02-02T21:40:58.954Z,101050.78
2018-02-02T21:43:27.252Z,101052.52
2018-02-02T21:45:55.552Z,101052.69
2018-02-02T21:48:23.876Z,101049.36
2018-02-02T21:50:52.194Z,101054.16
2018-02-02T21:53:20.604Z,101041.51
2018-02-02T21:55:48.918Z,101039.59
2018-02-02T21:58:18.016Z,101038.77
2018-02-02T22:00:46.364Z,101043.21
2018-02-02T22:03:14.683Z,101041.89
2018-02-02T22:05:42.984Z,101046.67
2018-02-02T22:08:11.316Z,101041.36
2018-02-02T22:10:39.636Z,101030.41
2018-02-02T22:13:08.708Z,101035.79
2018-02-02T22:15:37.080Z,101033.04
2018-02-02T22:18:05.362Z,101028.06
2018-02-02T22:20:33.672Z,101035.16
2018-02-02T22:23:01.984Z,101023.00
2018-02-02T22:25:30.294Z,101026.97
2018-02-02T22:27:58.592Z,101025.31
2018-02-02T22:30:26.892Z,101024.66
2018-02-02T22:32:55.188Z,101026.58
2018-02-02T22:35:23.531Z,101026.66
2018-02-02T22:37:51.842Z,101027.57
2018-02-02T22:40:20.154Z,101024.09
2018-02-02T22:42:49.268Z,101025.49
2018-02-02T22:45:17.572Z,101027.31
2018-02-02T22:47:45.923Z,101023.98
2018-02-02T22:50:14.240Z,101023.08
2018-02-02T22:52:42.552Z,101029.36
2018-02-02T22:55:10.857Z,101024.07
2018-02-02T22:57:39.183Z,101032.27
2018-02-02T23:00:07.516Z,101032.58
2018-02-02T23:02:36.604Z,101032.28
2018-02-02T23:05:05.698Z,101038.82
2018-02-02T23:07:34.764Z,101036.28
2018-02-02T23:10:03.091Z,101040.51
2018-02-02T23:12:32.174Z,101036.73
2018-02-02T23:15:00.468Z,101040.84
2018-02-02T23:17:29.558Z,101041.52
2018-02-02T23:19:58.642Z,101039.03
2018-02-02T23:22:26.944Z,101039.45
2018-02-02T23:24:56.728Z,101036.55
2018-02-02T23:27:25.812Z,101042.66
2018-02-02T23:29:54.134Z,101040.17
2018-02-02T23:32:22.442Z,101038.59
2018-02-02T23:34:50.757Z,101039.57
2018-02-02T23:37:19.058Z,101043.95
2018-02-02T23:39:47.360Z,101047.17
2018-02-02T23:42:15.678Z,101046.26
2018-02-02T23:44:43.994Z,101043.05
2018-02-02T23:47:12.364Z,101044.45
2018-02-02T23:49:40.674Z,101038.90
2018-02-02T23:52:08.994Z,101038.82
2018-02-02T23:54:37.330Z,101044.52
2018-02-02T23:57:05.658Z,101045.02
2018-02-02T23:59:33.968Z,101044.00
